createdAt,value
2017-08-01T00:04:25.699Z,20.24
2017-08-01T00:09:22.519Z,20.07
2017-08-01T00:14:18.227Z,20.06
2017-08-01T00:19:14.839Z,20.19
2017-08-01T00:24:10.752Z,20.02
2017-08-01T00:29:07.905Z,20.02
2017-08-01T00:34:03.430Z,20.03
2017-08-01T00:38:59.720Z,20.02
2017-08-01T00:43:56.672Z,20.04
2017-08-01T00:48:53.433Z,19.92
2017-08-01T00:53:49.064Z,19.99
2017-08-01T00:58:44.867Z,20.00
2017-08-01T01:03:41.936Z,20.00
2017-08-01T01:08:37.486Z,19.84
2017-08-01T01:13:33.429Z,19.95
2017-08-01T01:18:29.222Z,20.02
2017-08-01T01:23:24.959Z,20.03
2017-08-01T01:28:21.288Z,20.00
2017-08-01T01:33:17.175Z,20.02
2017-08-01T01:38:13.139Z,20.06
2017-08-01T01:43:10.367Z,20.00
2017-08-01T01:48:06.604Z,20.09
2017-08-01T01:53:03.920Z,20.18
2017-08-01T01:57:59.863Z,19.99
2017-08-01T02:02:55.997Z,20.00
2017-08-01T02:07:52.597Z,20.00
2017-08-01T02:12:48.615Z,20.06
2017-08-01T02:17:44.843Z,20.04
2017-08-01T02:22:40.863Z,20.07
2017-08-01T02:27:37.544Z,19.99
2017-08-01T02:32:33.744Z,19.95
2017-08-01T02:37:30.767Z,19.79
2017-08-01T02:42:27.542Z,19.71
2017-08-01T02:47:24.215Z,19.56
2017-08-01T02:52:20.776Z,19.48
2017-08-01T02:57:17.313Z,19.47
2017-08-01T03:02:13.031Z,19.36
2017-08-01T03:07:08.926Z,19.33
2017-08-01T03:12:05.012Z,19.14
2017-08-01T03:17:01.819Z,19.21
2017-08-01T03:21:58.730Z,19.16
2017-08-01T03:26:54.194Z,19.14
2017-08-01T03:31:50.208Z,19.11
2017-08-01T03:36:46.258Z,19.09
2017-08-01T03:41:42.166Z,19.15
2017-08-01T03:46:39.670Z,18.98
2017-08-01T03:51:35.357Z,19.00
2017-08-01T03:56:31.197Z,18.92
2017-08-01T04:01:28.412Z,18.96
2017-08-01T04:06:24.569Z,18.98
2017-08-01T04:11:21.767Z,18.78
2017-08-01T04:16:17.459Z,18.88
2017-08-01T04:21:13.578Z,18.93
2017-08-01T04:26:10.597Z,18.88
2017-08-01T04:31:06.978Z,18.65
2017-08-01T04:36:03.513Z,18.63
2017-08-01T04:41:00.412Z,18.75
2017-08-01T04:45:56.341Z,18.84
2017-08-01T04:50:53.598Z,19.16
2017-08-01T04:55:50.430Z,19.39
2017-08-01T05:00:46.403Z,19.19
2017-08-01T05:05:43.467Z,18.96
2017-08-01T05:10:39.718Z,18.98
2017-08-01T05:15:37.190Z,19.15
2017-08-01T05:20:33.926Z,19.55
2017-08-01T05:25:30.950Z,19.73
2017-08-01T05:30:26.743Z,20.26
2017-08-01T05:35:22.869Z,20.34
2017-08-01T05:40:18.905Z,20.32
2017-08-01T05:45:14.686Z,20.28
2017-08-01T05:50:10.828Z,20.29
2017-08-01T05:55:06.895Z,20.11
2017-08-01T06:00:03.880Z,20.22
2017-08-01T06:04:59.964Z,20.28
2017-08-01T06:09:55.896Z,20.50
2017-08-01T06:14:51.975Z,20.59
2017-08-01T06:19:47.980Z,20.52
2017-08-01T06:24:44.180Z,20.66
2017-08-01T06:29:42.159Z,20.39
2017-08-01T06:34:37.535Z,20.59
2017-08-01T06:39:34.499Z,20.99
2017-08-01T06:44:30.385Z,21.05
2017-08-01T06:49:26.716Z,21.36
2017-08-01T06:54:22.934Z,21.43
2017-08-01T06:59:19.353Z,21.60
2017-08-01T07:04:16.533Z,21.76
2017-08-01T07:09:12.629Z,21.96
2017-08-01T07:14:09.297Z,22.17
2017-08-01T07:19:07.233Z,22.28
2017-08-01T07:24:03.948Z,22.43
2017-08-01T07:28:59.730Z,22.47
2017-08-01T07:33:55.622Z,22.54
2017-08-01T07:38:52.796Z,22.76
2017-08-01T07:43:48.995Z,22.72
2017-08-01T07:48:44.933Z,22.73
2017-08-01T07:53:40.978Z,23.02
2017-08-01T07:58:37.401Z,23.36
2017-08-01T08:03:34.225Z,23.74
2017-08-01T08:08:30.791Z,23.98
2017-08-01T08:13:28.381Z,24.14
2017-08-01T08:18:25.263Z,23.88
2017-08-01T08:23:21.845Z,23.54
2017-08-01T08:28:17.619Z,23.43
2017-08-01T08:33:14.543Z,23.50
2017-08-01T08:38:10.201Z,23.39
2017-08-01T08:43:07.374Z,23.47
2017-08-01T08:48:04.396Z,23.88
2017-08-01T08:53:01.516Z,23.78
2017-08-01T08:57:57.053Z,23.96
2017-08-01T09:02:54.130Z,23.78
2017-08-01T09:07:50.242Z,23.87
2017-08-01T09:12:46.305Z,24.08
2017-08-01T09:17:42.400Z,23.95
2017-08-01T09:22:37.990Z,23.80
2017-08-01T09:27:34.509Z,23.63
2017-08-01T09:32:30.984Z,23.62
2017-08-01T09:37:28.503Z,23.48
2017-08-01T09:42:24.634Z,23.47
2017-08-01T09:47:21.710Z,23.40
2017-08-01T09:52:17.300Z,23.28
2017-08-01T09:57:14.007Z,23.21
2017-08-01T10:02:10.399Z,23.12
2017-08-01T10:07:06.135Z,23.15
2017-08-01T10:12:02.116Z,23.17
2017-08-01T10:16:59.126Z,23.13
2017-08-01T10:21:55.714Z,22.98
2017-08-01T10:26:52.352Z,22.88
2017-08-01T10:31:49.011Z,23.06
2017-08-01T10:36:45.339Z,23.31
2017-08-01T10:41:44.749Z,24.26
2017-08-01T10:46:43.179Z,25.08
2017-08-01T10:51:39.792Z,25.50
2017-08-01T10:56:37.033Z,25.44
2017-08-01T11:01:33.162Z,25.36
2017-08-01T11:06:28.359Z,25.22
2017-08-01T11:11:24.462Z,25.08
2017-08-01T11:16:21.179Z,24.99
2017-08-01T11:21:16.635Z,24.86
2017-08-01T11:26:14.485Z,25.04
2017-08-01T11:31:12.466Z,24.99
2017-08-01T11:36:09.998Z,25.03
2017-08-01T11:41:08.067Z,25.55
2017-08-01T11:46:02.859Z,25.22
2017-08-01T11:50:57.709Z,25.03
2017-08-01T11:55:52.815Z,24.69
2017-08-01T12:00:48.760Z,24.68
2017-08-01T12:05:44.384Z,24.39
2017-08-01T12:10:40.327Z,24.23
2017-08-01T12:15:36.436Z,24.47
2017-08-01T12:20:35.063Z,24.16
2017-08-01T12:25:31.644Z,24.06
2017-08-01T12:30:27.245Z,24.02
2017-08-01T12:35:24.622Z,24.10
2017-08-01T12:40:21.591Z,24.29
2017-08-01T12:45:18.126Z,24.16
2017-08-01T12:50:14.779Z,24.02
2017-08-01T12:55:11.399Z,23.92
2017-08-01T13:00:08.588Z,23.83
2017-08-01T13:05:05.191Z,23.65
2017-08-01T13:10:01.906Z,23.51
2017-08-01T13:14:58.215Z,23.50
2017-08-01T13:19:53.890Z,23.46
2017-08-01T13:24:50.673Z,23.28
2017-08-01T13:29:47.290Z,23.28
2017-08-01T13:34:42.781Z,23.31
2017-08-01T13:39:38.623Z,23.25
2017-08-01T13:44:34.530Z,23.13
2017-08-01T13:49:30.354Z,23.02
2017-08-01T13:54:28.045Z,23.09
2017-08-01T13:59:25.241Z,23.34
2017-08-01T14:04:21.458Z,23.44
2017-08-01T14:09:19.700Z,23.31
2017-08-01T14:14:15.094Z,23.32
2017-08-01T14:19:10.995Z,23.27
2017-08-01T14:24:06.703Z,23.23
2017-08-01T14:29:04.774Z,23.15
2017-08-01T14:34:01.029Z,23.23
2017-08-01T14:38:56.668Z,23.32
2017-08-01T14:43:53.078Z,23.32
2017-08-01T14:48:49.421Z,23.21
2017-08-01T14:53:47.618Z,23.21
2017-08-01T14:58:42.975Z,23.15
2017-08-01T15:03:40.919Z,23.18
2017-08-01T15:08:37.766Z,23.09
2017-08-01T15:13:34.539Z,23.15
2017-08-01T15:18:30.197Z,23.05
2017-08-01T15:23:27.295Z,23.02
2017-08-01T15:28:23.848Z,23.13
2017-08-01T15:33:19.652Z,23.17
2017-08-01T15:38:17.395Z,22.81
2017-08-01T15:43:13.683Z,22.72
2017-08-01T15:48:09.370Z,22.83
2017-08-01T15:53:08.807Z,22.85
2017-08-01T15:58:04.843Z,22.72
2017-08-01T16:03:01.855Z,22.55
2017-08-01T16:07:57.641Z,22.57
2017-08-01T16:12:53.696Z,22.63
2017-08-01T16:17:49.630Z,22.76
2017-08-01T16:22:46.770Z,22.36
2017-08-01T16:27:43.307Z,22.41
2017-08-01T16:32:38.743Z,22.30
2017-08-01T16:37:35.739Z,22.28
2017-08-01T16:42:32.461Z,22.29
2017-08-01T16:47:29.111Z,22.11
2017-08-01T16:52:24.690Z,22.02
2017-08-01T16:57:21.339Z,22.02
2017-08-01T17:02:20.361Z,22.04
2017-08-01T17:07:16.873Z,21.87
2017-08-01T17:12:12.437Z,21.80
2017-08-01T17:17:09.535Z,21.69
2017-08-01T17:22:05.116Z,21.55
2017-08-01T17:27:02.027Z,21.42
2017-08-01T17:31:58.606Z,21.37
2017-08-01T17:36:54.296Z,21.39
2017-08-01T17:41:51.474Z,21.32
2017-08-01T17:46:48.349Z,21.27
2017-08-01T17:51:45.407Z,21.07
2017-08-01T17:56:41.026Z,20.99
2017-08-01T18:01:37.046Z,20.97
2017-08-01T18:06:32.829Z,20.77
2017-08-01T18:11:29.031Z,20.58
2017-08-01T18:16:24.809Z,20.37
2017-08-01T18:21:20.676Z,20.41
2017-08-01T18:26:18.433Z,20.24
2017-08-01T18:31:16.159Z,20.16
2017-08-01T18:36:13.404Z,20.24
2017-08-01T18:41:09.951Z,20.14
2017-08-01T18:46:06.550Z,19.95
2017-08-01T18:51:03.202Z,19.81
2017-08-01T18:55:58.870Z,19.84
2017-08-01T19:00:55.775Z,19.79
2017-08-01T19:05:51.080Z,19.71
2017-08-01T19:10:48.505Z,19.79
2017-08-01T19:15:45.154Z,19.92
2017-08-01T19:20:40.959Z,19.95
2017-08-01T19:25:37.477Z,20.00
2017-08-01T19:30:33.527Z,19.95
2017-08-01T19:35:30.183Z,20.02
2017-08-01T19:40:26.458Z,19.96
2017-08-01T19:45:22.904Z,20.04
2017-08-01T19:50:19.758Z,19.91
2017-08-01T19:55:15.774Z,19.95
2017-08-01T20:00:11.324Z,20.02
2017-08-01T20:05:08.839Z,19.74
2017-08-01T20:10:05.628Z,19.95
2017-08-01T20:15:01.136Z,20.02
2017-08-01T20:19:56.966Z,20.09
2017-08-01T20:24:53.331Z,20.13
2017-08-01T20:29:49.380Z,20.07
2017-08-01T20:34:45.426Z,20.11
2017-08-01T20:39:42.378Z,20.10
2017-08-01T20:44:38.968Z,20.18
2017-08-01T20:49:35.623Z,20.19
2017-08-01T20:54:32.238Z,20.14
2017-08-01T20:59:27.767Z,20.06
2017-08-01T21:04:23.930Z,19.95
2017-08-01T21:09:19.833Z,19.63
2017-08-01T21:14:15.698Z,19.49
2017-08-01T21:19:11.561Z,19.37
2017-08-01T21:29:03.608Z,19.40
2017-08-01T21:34:00.587Z,19.31
2017-08-01T21:38:56.152Z,19.11
2017-08-01T21:43:53.047Z,19.08
2017-08-01T21:48:49.373Z,19.07
2017-08-01T21:53:46.161Z,19.11
2017-08-01T21:58:41.673Z,19.15
2017-08-01T22:03:38.875Z,19.02
2017-08-01T22:08:34.566Z,18.89
2017-08-01T22:13:31.293Z,18.66
2017-08-01T22:18:26.779Z,18.60
2017-08-01T22:23:23.748Z,18.60
2017-08-01T22:28:19.425Z,18.62
2017-08-01T22:33:15.463Z,18.56
2017-08-01T22:38:13.247Z,18.55
2017-08-01T22:43:09.630Z,18.58
2017-08-01T22:48:06.196Z,18.59
2017-08-01T22:53:01.670Z,18.66
2017-08-01T22:57:57.590Z,18.58
2017-08-01T23:02:53.586Z,18.41
2017-08-01T23:07:49.472Z,18.49
2017-08-01T23:12:46.900Z,18.49
2017-08-01T23:17:43.310Z,18.66
2017-08-01T23:22:40.797Z,18.59
2017-08-01T23:27:40.423Z,18.68
2017-08-01T23:32:35.878Z,18.71
2017-08-01T23:37:31.845Z,18.68
2017-08-01T23:42:29.564Z,18.73
2017-08-01T23:47:26.708Z,18.80
2017-08-01T23:52:22.126Z,18.84
2017-08-01T23:57:18.885Z,18.80
